Airport ID:KVUF
Update Time (UTC):06/12/2021 20:36
Wind Speed (Knots):7
Wind Direction (Magnetic):10
Temperature (°C):9
Dew Point (°C):-13
Humidity (%):21
Altimeter (inHg):30.31
Density Altitude (Feet):
Visibility:10+
Clouds (Hundreds of feet):CLR
Present Weather:
METAR:METAR KVUF 062035Z AUTO 02009KT 10SM CLR 09/M13 A3031 RMK A01

The data displayed is for advisory purposes only and is not to be used for flight planning or operations.